LFBDEBCI

Guest
Details From LFBD - Bordeaux Merignac
To EBCI - Brussels South - Charleroi
Flight Number -
Tags Generated
Created
Modified
Stats Distance 397 nm / 735 km
Max Altitude 0 ft / 0 m
Waypoints 3
Social Downloads 2
Likes 0
Share VATSIM

Download

Looking for another format? Having issues loading an existing format? Contact us
Advertisement - Login to hide

Notes

Generated

Route

LFBD MOPIL EBCI

ID Type Via Altitude Latitude Longitude Leg Dist Tot Dist Heading (true) Name
O LFBD APT - 0 ft / 0 m 44.83157˚ -0.72924˚ - 0 nm - -
MOPIL FIX - 0 ft / 0 m 50.14778˚ 4.10778˚ 374 nm 374 nm 30° / 33° -
O EBCI APT - 0 ft / 0 m 50.45539˚ 4.43664˚ 22 nm 396 nm 34° / 34° -

Altitude Profile

Advertisement - Login to hide

Weather


0- 5 10 15 20 25 30 35+ Temperature / ° C

Clouds and Precipitation
Forecast for 2017-12-12 00:00 UTC. Updated 2 hours ago

Ground ~20,000 ft ~40,000 ft Winds

LFBD

Details ICAO LFBD (BOD)
Name Bordeaux Merignac
Region France
Timezone Europe/Paris (UTC+1.0)
Stats Elevation 166 ft / 51 m (AMSL)
Location 44.828762° -0.714755°
Runways 2
Magnetic Variation 0.068° W

METAR

LFBD 112030Z AUTO VRB03KT 9999 BKN031/// BKN037/// OVC043/// ///TCU 07/06 Q0998 BECMG BKN040

Decode

TAF

TAF TAF LFBD 111700Z 1118/1224 VRB03KT 9999 BKN040 TEMPO 1118/1121 3000 SHRA SCT020CB BKN025TCU BECMG 1200/1202 4000 BR NSC TEMPO 1204/1209 VRB02KT 1500 BCFG BECMG 1209/1211 CAVOK TX10/1214Z TN01/1206Z

Decode

Departure Runways

ID Width Length Bearing (true) Bearing (mag) Surface Threshold Offset Overrun Length
05 148 ft / 45 m 10,164 ft / 3,098 m 45.48° 45.55° Asphalt 26 ft / 8 m 1,145 ft / 349 m
11 148 ft / 45 m 7,931 ft / 2,417 m 106.45° 106.52° Asphalt 26 ft / 8 m 1,198 ft / 365 m
23 148 ft / 45 m 10,164 ft / 3,098 m 225.50° 225.57° Asphalt 39 ft / 12 m 1,266 ft / 386 m
29 148 ft / 45 m 7,931 ft / 2,417 m 286.47° 286.54° Asphalt 33 ft / 10 m 1,201 ft / 366 m

EBCI

Details ICAO EBCI (CRL)
Name Brussels South - Charleroi
Region Belgium
Timezone Europe/Brussels (UTC+1.0)
Stats Elevation 614 ft / 187 m (AMSL)
Location 50.459947° 4.453125°
Runways 1
Magnetic Variation 1.132° E

METAR

EBCI 112020Z 33009KT 300V360 5000 -SN BKN003 BKN005 M00/M02 Q0983 TEMPO 0800 SN

Decode

TAF

TAF EBCI 111710Z 1118/1224 19008KT 7000 SCT005 BKN008 BECMG 1119/1121 32012KT -SNRA BKN004 TEMPO 1120/1124 0700 SN BKN002 BECMG 1202/1204 26009KT TEMPO 1204/1214 2500 SHSN BKN004 BKN010CB

Decode

Destination Runways

ID Width Length Bearing (true) Bearing (mag) Surface Threshold Offset Overrun Length
07 148 ft / 45 m 8,374 ft / 2,552 m 65.53° 64.40° Asphalt 1,476 ft / 450 m 0 ft / 0 m
25 148 ft / 45 m 8,374 ft / 2,552 m 245.55° 244.42° Asphalt 0 ft / 0 m 0 ft / 0 m

Approach Navaids

Runway Type Ident Frequency Range Bearing (true) Bearing (mag) Slope Elevation
25 Localiser IGC 110.90 MHz 18 nm / 33 km 245.54° 244.41° - 614 ft / 187 m (AMSL)
25 Glidescope IGC 110.90 MHz 10 nm / 19 km 245.54° 244.41° 3.00° 614 ft / 187 m (AMSL)

Popular Alternatives